Terminal Aerodrome Forecast
Issued by NWS Sterling, VA

Current Version | Previous Version | Text Only | Print | Product List | Glossary Off
Versions: 1 2 3 4 5 6 7 8 9 10 11 12 13 14 15 16 17 18 19 20 21 22

000
FTUS41 KLWX 050818 AAA
TAFIAD
TAF AMD
KIAD 050818Z 0508/0612 20008KT P6SM SCT120
     FM051400 26005KT P6SM BKN070
     FM051900 VRB05KT 6SM -SHRA VCTS BKN050CB
     FM060200 VRB04KT P6SM VCSH BKN080=

USA.gov is the U.S. government's official web portal to all federal, state and local government web resources and services.